sensor_id;sensor_type;location;lat;lon;timestamp;pressure;altitude;pressure_sealevel;temperature
69785;BMP280;14177;51.520;6.764;2024-03-08T00:00:38;101597.75;;;4.20
69785;BMP280;14177;51.520;6.764;2024-03-08T00:03:07;101597.75;;;4.20
69785;BMP280;14177;51.520;6.764;2024-03-08T00:05:34;101593.44;;;4.14
69785;BMP280;14177;51.520;6.764;2024-03-08T00:08:00;101595.13;;;4.11
69785;BMP280;14177;51.520;6.764;2024-03-08T00:10:30;101594.31;;;4.13
69785;BMP280;14177;51.520;6.764;2024-03-08T00:12:57;101593.44;;;4.11
69785;BMP280;14177;51.520;6.764;2024-03-08T00:15:24;101596.81;;;4.07
69785;BMP280;14177;51.520;6.764;2024-03-08T00:17:51;101586.50;;;4.04
69785;BMP280;14177;51.520;6.764;2024-03-08T00:20:18;101589.03;;;3.98
69785;BMP280;14177;51.520;6.764;2024-03-08T00:22:46;101591.56;;;3.95
69785;BMP280;14177;51.520;6.764;2024-03-08T00:25:13;101586.41;;;3.92
69785;BMP280;14177;51.520;6.764;2024-03-08T00:27:40;101588.91;;;3.86
69785;BMP280;14177;51.520;6.764;2024-03-08T00:30:10;101594.91;;;3.85
69785;BMP280;14177;51.520;6.764;2024-03-08T00:32:40;101582.03;;;3.81
69785;BMP280;14177;51.520;6.764;2024-03-08T00:35:08;101591.41;;;3.77
69785;BMP280;14177;51.520;6.764;2024-03-08T00:37:35;101587.97;;;3.74
69785;BMP280;14177;51.520;6.764;2024-03-08T00:40:02;101579.38;;;3.72
69785;BMP280;14177;51.520;6.764;2024-03-08T00:42:29;101588.75;;;3.68
69785;BMP280;14177;51.520;6.764;2024-03-08T00:44:56;101577.59;;;3.66
69785;BMP280;14177;51.520;6.764;2024-03-08T00:47:24;101587.88;;;3.63
69785;BMP280;14177;51.520;6.764;2024-03-08T00:49:51;101587.00;;;3.61
69785;BMP280;14177;51.520;6.764;2024-03-08T00:52:19;101580.97;;;3.59
69785;BMP280;14177;51.520;6.764;2024-03-08T00:54:46;101574.09;;;3.57
69785;BMP280;14177;51.520;6.764;2024-03-08T00:57:13;101578.34;;;3.55
69785;BMP280;14177;51.520;6.764;2024-03-08T00:59:40;101570.63;;;3.54
69785;BMP280;14177;51.520;6.764;2024-03-08T01:02:07;101568.88;;;3.50
69785;BMP280;14177;51.520;6.764;2024-03-08T01:04:35;101570.56;;;3.48
69785;BMP280;14177;51.520;6.764;2024-03-08T01:07:02;101567.13;;;3.46
69785;BMP280;14177;51.520;6.764;2024-03-08T01:09:29;101561.13;;;3.44
69785;BMP280;14177;51.520;6.764;2024-03-08T01:11:56;101554.22;;;3.40
69785;BMP280;14177;51.520;6.764;2024-03-08T01:14:25;101545.59;;;3.36
69785;BMP280;14177;51.520;6.764;2024-03-08T01:16:57;101549.94;;;3.39
69785;BMP280;14177;51.520;6.764;2024-03-08T01:19:23;101542.19;;;3.36
69785;BMP280;14177;51.520;6.764;2024-03-08T01:21:51;101538.69;;;3.29
69785;BMP280;14177;51.520;6.764;2024-03-08T01:24:19;101539.53;;;3.28
69785;BMP280;14177;51.520;6.764;2024-03-08T01:26:46;101536.09;;;3.25
69785;BMP280;14177;51.520;6.764;2024-03-08T01:29:13;101534.34;;;3.24
69785;BMP280;14177;51.520;6.764;2024-03-08T01:31:40;101537.75;;;3.20
69785;BMP280;14177;51.520;6.764;2024-03-08T01:34:07;101531.72;;;3.18
69785;BMP280;14177;51.520;6.764;2024-03-08T01:36:34;101518.84;;;3.15
69785;BMP280;14177;51.520;6.764;2024-03-08T01:39:00;101539.41;;;3.15
69785;BMP280;14177;51.520;6.764;2024-03-08T01:41:27;101531.66;;;3.12
69785;BMP280;14177;51.520;6.764;2024-03-08T01:43:56;101523.06;;;3.08
69785;BMP280;14177;51.520;6.764;2024-03-08T01:46:24;101519.59;;;3.03
69785;BMP280;14177;51.520;6.764;2024-03-08T01:48:51;101526.41;;;3.01
69785;BMP280;14177;51.520;6.764;2024-03-08T01:51:19;101515.25;;;2.98
69785;BMP280;14177;51.520;6.764;2024-03-08T01:53:48;101523.78;;;2.97
69785;BMP280;14177;51.520;6.764;2024-03-08T01:56:16;101516.91;;;2.96
69785;BMP280;14177;51.520;6.764;2024-03-08T01:58:44;101513.47;;;2.94
69785;BMP280;14177;51.520;6.764;2024-03-08T02:01:13;101510.03;;;2.90
69785;BMP280;14177;51.520;6.764;2024-03-08T02:03:45;101511.75;;;2.90
69785;BMP280;14177;51.520;6.764;2024-03-08T02:06:13;101502.28;;;2.87
69785;BMP280;14177;51.520;6.764;2024-03-08T02:08:43;101503.97;;;2.84
69785;BMP280;14177;51.520;6.764;2024-03-08T02:11:12;101512.53;;;2.84
69785;BMP280;14177;51.520;6.764;2024-03-08T02:13:39;101503.94;;;2.81
69785;BMP280;14177;51.520;6.764;2024-03-08T02:16:06;101502.19;;;2.78
69785;BMP280;14177;51.520;6.764;2024-03-08T02:18:35;101502.16;;;2.75
69785;BMP280;14177;51.520;6.764;2024-03-08T02:21:05;101498.75;;;2.75
69785;BMP280;14177;51.520;6.764;2024-03-08T02:23:33;101490.97;;;2.70
69785;BMP280;14177;51.520;6.764;2024-03-08T02:26:00;101489.25;;;2.68
69785;BMP280;14177;51.520;6.764;2024-03-08T02:28:27;101490.94;;;2.66
69785;BMP280;14177;51.520;6.764;2024-03-08T02:30:57;101487.50;;;2.64
69785;BMP280;14177;51.520;6.764;2024-03-08T02:33:27;101483.16;;;2.61
69785;BMP280;14177;51.520;6.764;2024-03-08T02:35:55;101490.00;;;2.61
69785;BMP280;14177;51.520;6.764;2024-03-08T02:38:26;101478.88;;;2.59
69785;BMP280;14177;51.520;6.764;2024-03-08T02:40:54;101483.97;;;2.56
69785;BMP280;14177;51.520;6.764;2024-03-08T02:43:22;101477.94;;;2.54
69785;BMP280;14177;51.520;6.764;2024-03-08T02:45:50;101473.66;;;2.53
69785;BMP280;14177;51.520;6.764;2024-03-08T02:48:19;101468.50;;;2.48
69785;BMP280;14177;51.520;6.764;2024-03-08T02:50:48;101463.28;;;2.44
69785;BMP280;14177;51.520;6.764;2024-03-08T02:53:17;101465.84;;;2.44
69785;BMP280;14177;51.520;6.764;2024-03-08T02:55:45;101470.09;;;2.40
69785;BMP280;14177;51.520;6.764;2024-03-08T02:58:13;101468.34;;;2.38
69785;BMP280;14177;51.520;6.764;2024-03-08T03:00:41;101464.06;;;2.36
69785;BMP280;14177;51.520;6.764;2024-03-08T03:03:09;101462.28;;;2.32
69785;BMP280;14177;51.520;6.764;2024-03-08T03:05:37;101455.41;;;2.29
69785;BMP280;14177;51.520;6.764;2024-03-08T03:08:04;101454.50;;;2.27
69785;BMP280;14177;51.520;6.764;2024-03-08T03:10:36;101452.78;;;2.26
69785;BMP280;14177;51.520;6.764;2024-03-08T03:13:03;101446.75;;;2.21
69785;BMP280;14177;51.520;6.764;2024-03-08T03:15:31;101437.31;;;2.20
69785;BMP280;14177;51.520;6.764;2024-03-08T03:18:00;101446.72;;;2.18
69785;BMP280;14177;51.520;6.764;2024-03-08T03:20:28;101442.41;;;2.16
69785;BMP280;14177;51.520;6.764;2024-03-08T03:22:59;101440.69;;;2.13
69785;BMP280;14177;51.520;6.764;2024-03-08T03:25:30;101438.97;;;2.12
69785;BMP280;14177;51.520;6.764;2024-03-08T03:28:02;101435.56;;;2.13
69785;BMP280;14177;51.520;6.764;2024-03-08T03:30:29;101437.25;;;2.11
69785;BMP280;14177;51.520;6.764;2024-03-08T03:33:02;101434.63;;;2.10
69785;BMP280;14177;51.520;6.764;2024-03-08T03:35:33;101441.44;;;2.08
69785;BMP280;14177;51.520;6.764;2024-03-08T03:38:01;101433.75;;;2.06
69785;BMP280;14177;51.520;6.764;2024-03-08T03:40:29;101437.13;;;2.04
69785;BMP280;14177;51.520;6.764;2024-03-08T03:42:56;101435.38;;;2.01
69785;BMP280;14177;51.520;6.764;2024-03-08T03:45:23;101426.81;;;1.99
69785;BMP280;14177;51.520;6.764;2024-03-08T03:47:51;101425.09;;;1.98
69785;BMP280;14177;51.520;6.764;2024-03-08T03:50:19;101421.66;;;1.96
69785;BMP280;14177;51.520;6.764;2024-03-08T03:52:47;101416.47;;;1.93
69785;BMP280;14177;51.520;6.764;2024-03-08T03:55:15;101425.84;;;1.93
69785;BMP280;14177;51.520;6.764;2024-03-08T03:57:42;101416.47;;;1.93
69785;BMP280;14177;51.520;6.764;2024-03-08T04:00:10;101414.72;;;1.91
69785;BMP280;14177;51.520;6.764;2024-03-08T04:02:41;101416.38;;;1.87
69785;BMP280;14177;51.520;6.764;2024-03-08T04:05:09;101418.06;;;1.85
69785;BMP280;14177;51.520;6.764;2024-03-08T04:07:38;101415.47;;;1.82
69785;BMP280;14177;51.520;6.764;2024-03-08T04:10:07;101418.03;;;1.81
69785;BMP280;14177;51.520;6.764;2024-03-08T04:12:35;101417.97;;;1.79
69785;BMP280;14177;51.520;6.764;2024-03-08T04:15:03;101417.13;;;1.79
69785;BMP280;14177;51.520;6.764;2024-03-08T04:17:30;101416.31;;;1.81
69785;BMP280;14177;51.520;6.764;2024-03-08T04:19:57;101415.41;;;1.79
69785;BMP280;14177;51.520;6.764;2024-03-08T04:22:24;101413.69;;;1.77
69785;BMP280;14177;51.520;6.764;2024-03-08T04:24:51;101402.53;;;1.73
69785;BMP280;14177;51.520;6.764;2024-03-08T04:27:18;101403.34;;;1.72
69785;BMP280;14177;51.520;6.764;2024-03-08T04:29:45;101399.91;;;1.70
69785;BMP280;14177;51.520;6.764;2024-03-08T04:32:13;101405.88;;;1.69
69785;BMP280;14177;51.520;6.764;2024-03-08T04:34:40;101402.47;;;1.69
69785;BMP280;14177;51.520;6.764;2024-03-08T04:37:12;101405.03;;;1.69
69785;BMP280;14177;51.520;6.764;2024-03-08T04:39:40;101401.59;;;1.67
69785;BMP280;14177;51.520;6.764;2024-03-08T04:42:08;101404.94;;;1.64
69785;BMP280;14177;51.520;6.764;2024-03-08T04:44:37;101401.53;;;1.64
69785;BMP280;14177;51.520;6.764;2024-03-08T04:47:04;101400.63;;;1.60
69785;BMP280;14177;51.520;6.764;2024-03-08T04:49:34;101388.66;;;1.59
69785;BMP280;14177;51.520;6.764;2024-03-08T04:52:03;101397.16;;;1.58
69785;BMP280;14177;51.520;6.764;2024-03-08T04:54:31;101398.00;;;1.57
69785;BMP280;14177;51.520;6.764;2024-03-08T04:56:58;101394.59;;;1.57
69785;BMP280;14177;51.520;6.764;2024-03-08T04:59:27;101385.19;;;1.56
69785;BMP280;14177;51.520;6.764;2024-03-08T05:01:54;101386.88;;;1.55
69785;BMP280;14177;51.520;6.764;2024-03-08T05:04:22;101385.16;;;1.54
69785;BMP280;14177;51.520;6.764;2024-03-08T05:06:49;101379.19;;;1.55
69785;BMP280;14177;51.520;6.764;2024-03-08T05:09:16;101378.31;;;1.53
69785;BMP280;14177;51.520;6.764;2024-03-08T05:11:46;101376.59;;;1.51
69785;BMP280;14177;51.520;6.764;2024-03-08T05:14:14;101369.69;;;1.48
69785;BMP280;14177;51.520;6.764;2024-03-08T05:16:48;101370.56;;;1.49
69785;BMP280;14177;51.520;6.764;2024-03-08T05:19:16;101370.53;;;1.47
69785;BMP280;14177;51.520;6.764;2024-03-08T05:21:47;101367.97;;;1.47
69785;BMP280;14177;51.520;6.764;2024-03-08T05:24:15;101362.00;;;1.45
69785;BMP280;14177;51.520;6.764;2024-03-08T05:26:44;101362.81;;;1.43
69785;BMP280;14177;51.520;6.764;2024-03-08T05:29:11;101359.34;;;1.41
69785;BMP280;14177;51.520;6.764;2024-03-08T05:31:50;101364.47;;;1.39
69785;BMP280;14177;51.520;6.764;2024-03-08T05:34:19;101360.16;;;1.37
69785;BMP280;14177;51.520;6.764;2024-03-08T05:36:49;101357.59;;;1.35
69785;BMP280;14177;51.520;6.764;2024-03-08T05:39:18;101363.50;;;1.33
69785;BMP280;14177;51.520;6.764;2024-03-08T05:41:45;101352.41;;;1.32
69785;BMP280;14177;51.520;6.764;2024-03-08T05:44:13;101353.25;;;1.31
69785;BMP280;14177;51.520;6.764;2024-03-08T05:46:40;101348.94;;;1.29
69785;BMP280;14177;51.520;6.764;2024-03-08T05:49:07;101352.31;;;1.28
69785;BMP280;14177;51.520;6.764;2024-03-08T05:51:38;101353.16;;;1.27
69785;BMP280;14177;51.520;6.764;2024-03-08T05:54:08;101355.72;;;1.27
69785;BMP280;14177;51.520;6.764;2024-03-08T05:56:38;101352.31;;;1.26
69785;BMP280;14177;51.520;6.764;2024-03-08T05:59:07;101343.75;;;1.24
69785;BMP280;14177;51.520;6.764;2024-03-08T06:01:34;101351.41;;;1.23
69785;BMP280;14177;51.520;6.764;2024-03-08T06:04:03;101339.47;;;1.23
69785;BMP280;14177;51.520;6.764;2024-03-08T06:06:30;101338.59;;;1.21
69785;BMP280;14177;51.520;6.764;2024-03-08T06:08:57;101342.03;;;1.23
69785;BMP280;14177;51.520;6.764;2024-03-08T06:11:26;101342.03;;;1.23
69785;BMP280;14177;51.520;6.764;2024-03-08T06:13:57;101335.19;;;1.22
69785;BMP280;14177;51.520;6.764;2024-03-08T06:16:27;101330.09;;;1.24
69785;BMP280;14177;51.520;6.764;2024-03-08T06:18:57;101333.53;;;1.26
69785;BMP280;14177;51.520;6.764;2024-03-08T06:21:26;101334.41;;;1.26
69785;BMP280;14177;51.520;6.764;2024-03-08T06:23:55;101329.28;;;1.28
69785;BMP280;14177;51.520;6.764;2024-03-08T06:26:25;101329.28;;;1.28
69785;BMP280;14177;51.520;6.764;2024-03-08T06:28:57;101331.91;;;1.31
69785;BMP280;14177;51.520;6.764;2024-03-08T06:31:24;101331.97;;;1.35
69785;BMP280;14177;51.520;6.764;2024-03-08T06:33:51;101328.59;;;1.36
69785;BMP280;14177;51.520;6.764;2024-03-08T06:36:21;101323.47;;;1.36
69785;BMP280;14177;51.520;6.764;2024-03-08T06:38:50;101328.63;;;1.41
69785;BMP280;14177;51.520;6.764;2024-03-08T06:41:17;101327.84;;;1.43
69785;BMP280;14177;51.520;6.764;2024-03-08T06:43:46;101334.72;;;1.49
69785;BMP280;14177;51.520;6.764;2024-03-08T06:46:15;101326.22;;;1.51
69785;BMP280;14177;51.520;6.764;2024-03-08T06:48:42;101326.28;;;1.56
69785;BMP280;14177;51.520;6.764;2024-03-08T06:51:09;101326.34;;;1.60
69785;BMP280;14177;51.520;6.764;2024-03-08T06:53:37;101327.34;;;1.71
69785;BMP280;14177;51.520;6.764;2024-03-08T06:56:05;101330.06;;;1.83
69785;BMP280;14177;51.520;6.764;2024-03-08T06:58:34;101330.22;;;1.95
69785;BMP280;14177;51.520;6.764;2024-03-08T07:01:01;101322.69;;;2.07
69785;BMP280;14177;51.520;6.764;2024-03-08T07:03:31;101319.41;;;2.19
69785;BMP280;14177;51.520;6.764;2024-03-08T07:05:59;101317.81;;;2.31
69785;BMP280;14177;51.520;6.764;2024-03-08T07:08:29;101314.56;;;2.47
69785;BMP280;14177;51.520;6.764;2024-03-08T07:10:56;101319.00;;;2.63
69785;BMP280;14177;51.520;6.764;2024-03-08T07:13:25;101320.03;;;2.80
69785;BMP280;14177;51.520;6.764;2024-03-08T07:15:55;101317.56;;;2.93
69785;BMP280;14177;51.520;6.764;2024-03-08T07:18:22;101324.53;;;3.08
69785;BMP280;14177;51.520;6.764;2024-03-08T07:20:50;101315.22;;;3.22
69785;BMP280;14177;51.520;6.764;2024-03-08T07:23:17;101313.59;;;3.33
69785;BMP280;14177;51.520;6.764;2024-03-08T07:26:10;101317.09;;;3.47
69785;BMP280;14177;51.520;6.764;2024-03-08T07:28:37;101323.16;;;3.58
69785;BMP280;14177;51.520;6.764;2024-03-08T07:31:04;101313.81;;;3.74
69785;BMP280;14177;51.520;6.764;2024-03-08T07:33:40;101327.59;;;3.88
69785;BMP280;14177;51.520;6.764;2024-03-08T07:36:10;101321.66;;;4.04
69785;BMP280;14177;51.520;6.764;2024-03-08T07:38:37;101314.88;;;4.23
69785;BMP280;14177;51.520;6.764;2024-03-08T07:41:04;101300.31;;;4.41
69785;BMP280;14177;51.520;6.764;2024-03-08T07:43:32;101302.09;;;4.66
69785;BMP280;14177;51.520;6.764;2024-03-08T07:46:02;101302.94;;;4.87
69785;BMP280;14177;51.520;6.764;2024-03-08T07:48:29;101308.94;;;5.12
69785;BMP280;14177;51.520;6.764;2024-03-08T07:51:00;101302.06;;;5.29
69785;BMP280;14177;51.520;6.764;2024-03-08T07:53:27;101299.47;;;5.38
69785;BMP280;14177;51.520;6.764;2024-03-08T07:55:59;101299.44;;;5.51
69785;BMP280;14177;51.520;6.764;2024-03-08T07:58:28;101293.41;;;5.66
69785;BMP280;14177;51.520;6.764;2024-03-08T08:01:01;101283.03;;;5.84
69785;BMP280;14177;51.520;6.764;2024-03-08T08:03:31;101288.09;;;6.10
69785;BMP280;14177;51.520;6.764;2024-03-08T08:06:01;101286.25;;;6.30
69785;BMP280;14177;51.520;6.764;2024-03-08T08:08:31;101281.88;;;6.47
69785;BMP280;14177;51.520;6.764;2024-03-08T08:11:05;101278.31;;;6.59
69785;BMP280;14177;51.520;6.764;2024-03-08T08:13:40;101279.09;;;6.71
69785;BMP280;14177;51.520;6.764;2024-03-08T08:16:09;101273.81;;;6.86
69785;BMP280;14177;51.520;6.764;2024-03-08T08:18:37;101259.06;;;6.97
69785;BMP280;14177;51.520;6.764;2024-03-08T08:21:11;101250.41;;;7.03
69785;BMP280;14177;51.520;6.764;2024-03-08T08:23:41;101258.03;;;7.15
69785;BMP280;14177;51.520;6.764;2024-03-08T08:26:12;101250.19;;;7.28
69785;BMP280;14177;51.520;6.764;2024-03-08T08:28:44;101244.84;;;7.41
69785;BMP280;14177;51.520;6.764;2024-03-08T08:31:21;101233.44;;;7.59
69785;BMP280;14177;51.520;6.764;2024-03-08T08:33:51;101228.94;;;7.74
69785;BMP280;14177;51.520;6.764;2024-03-08T08:36:23;101232.34;;;7.78
69785;BMP280;14177;51.520;6.764;2024-03-08T08:38:51;101227.78;;;7.98
69785;BMP280;14177;51.520;6.764;2024-03-08T08:41:23;101217.19;;;8.14
69785;BMP280;14177;51.520;6.764;2024-03-08T08:43:51;101222.16;;;8.31
69785;BMP280;14177;51.520;6.764;2024-03-08T08:46:41;101221.84;;;8.50
69785;BMP280;14177;51.520;6.764;2024-03-08T08:49:09;101212.88;;;8.70
69785;BMP280;14177;51.520;6.764;2024-03-08T08:51:49;101215.91;;;8.93
69785;BMP280;14177;51.520;6.764;2024-03-08T08:54:18;101206.78;;;9.20
69785;BMP280;14177;51.520;6.764;2024-03-08T08:56:46;101201.31;;;9.36
69785;BMP280;14177;51.520;6.764;2024-03-08T08:59:27;101193.91;;;9.59
69785;BMP280;14177;51.520;6.764;2024-03-08T09:01:56;101193.34;;;9.86
69785;BMP280;14177;51.520;6.764;2024-03-08T09:04:28;101191.19;;;10.06
69785;BMP280;14177;51.520;6.764;2024-03-08T09:07:04;101194.84;;;10.34
69785;BMP280;14177;51.520;6.764;2024-03-08T09:09:36;101195.03;;;10.63
69785;BMP280;14177;51.520;6.764;2024-03-08T09:12:09;101190.28;;;10.78
69785;BMP280;14177;51.520;6.764;2024-03-08T09:14:43;101178.41;;;11.01
69785;BMP280;14177;51.520;6.764;2024-03-08T09:17:16;101181.00;;;11.33
69785;BMP280;14177;51.520;6.764;2024-03-08T09:20:01;101158.97;;;11.45
69785;BMP280;14177;51.520;6.764;2024-03-08T09:22:32;101172.22;;;11.68
69785;BMP280;14177;51.520;6.764;2024-03-08T09:25:08;101171.25;;;11.70
69785;BMP280;14177;51.520;6.764;2024-03-08T09:27:42;101158.03;;;11.78
69785;BMP280;14177;51.520;6.764;2024-03-08T09:30:20;101157.94;;;11.81
69785;BMP280;14177;51.520;6.764;2024-03-08T09:33:02;101157.41;;;11.99
69785;BMP280;14177;51.520;6.764;2024-03-08T09:35:47;101152.56;;;12.14
69785;BMP280;14177;51.520;6.764;2024-03-08T09:38:15;101140.34;;;12.16
69785;BMP280;14177;51.520;6.764;2024-03-08T09:40:45;101151.28;;;12.27
69785;BMP280;14177;51.520;6.764;2024-03-08T09:43:23;101146.44;;;12.15
69785;BMP280;14177;51.520;6.764;2024-03-08T09:46:01;101141.81;;;11.97
69785;BMP280;14177;51.520;6.764;2024-03-08T09:49:00;101123.19;;;12.09
69785;BMP280;14177;51.520;6.764;2024-03-08T09:51:34;101120.41;;;12.41
69785;BMP280;14177;51.520;6.764;2024-03-08T09:54:13;101129.00;;;12.69
69785;BMP280;14177;51.520;6.764;2024-03-08T09:56:51;101115.66;;;12.78
69785;BMP280;14177;51.520;6.764;2024-03-08T09:59:33;101122.56;;;12.79
69785;BMP280;14177;51.520;6.764;2024-03-08T10:02:11;101117.25;;;12.57
69785;BMP280;14177;51.520;6.764;2024-03-08T10:04:45;101107.03;;;12.51
69785;BMP280;14177;51.520;6.764;2024-03-08T10:07:23;101103.75;;;12.71
69785;BMP280;14177;51.520;6.764;2024-03-08T10:10:00;101103.50;;;13.03
69785;BMP280;14177;51.520;6.764;2024-03-08T10:12:35;101106.34;;;13.20
69785;BMP280;14177;51.520;6.764;2024-03-08T10:15:08;101106.00;;;13.06
69785;BMP280;14177;51.520;6.764;2024-03-08T10:17:49;101095.69;;;13.03
69785;BMP280;14177;51.520;6.764;2024-03-08T10:20:25;101097.28;;;13.07
69785;BMP280;14177;51.520;6.764;2024-03-08T10:23:23;101088.28;;;13.14
69785;BMP280;14177;51.520;6.764;2024-03-08T10:26:18;101087.38;;;13.15
69785;BMP280;14177;51.520;6.764;2024-03-08T10:28:51;101071.41;;;13.01
69785;BMP280;14177;51.520;6.764;2024-03-08T10:31:27;101074.81;;;13.03
69785;BMP280;14177;51.520;6.764;2024-03-08T10:33:57;101068.34;;;13.13
69785;BMP280;14177;51.520;6.764;2024-03-08T10:36:35;101067.94;;;13.00
69785;BMP280;14177;51.520;6.764;2024-03-08T10:39:25;101069.50;;;13.06
69785;BMP280;14177;51.520;6.764;2024-03-08T10:42:11;101063.50;;;13.48
69785;BMP280;14177;51.520;6.764;2024-03-08T10:45:05;101055.88;;;13.86
69785;BMP280;14177;51.520;6.764;2024-03-08T10:50:49;101047.50;;;14.00
69785;BMP280;14177;51.520;6.764;2024-03-08T10:53:35;101038.00;;;13.97
69785;BMP280;14177;51.520;6.764;2024-03-08T10:56:31;101039.47;;;14.04
69785;BMP280;14177;51.520;6.764;2024-03-08T10:59:02;101023.41;;;14.13
69785;BMP280;14177;51.520;6.764;2024-03-08T11:01:36;101029.00;;;14.26
69785;BMP280;14177;51.520;6.764;2024-03-08T11:04:10;101012.50;;;14.25
69785;BMP280;14177;51.520;6.764;2024-03-08T11:09:49;101008.44;;;14.38
69785;BMP280;14177;51.520;6.764;2024-03-08T11:12:27;100999.69;;;14.39
69785;BMP280;14177;51.520;6.764;2024-03-08T11:15:11;100997.59;;;14.47
69785;BMP280;14177;51.520;6.764;2024-03-08T11:17:53;100995.16;;;14.62
69785;BMP280;14177;51.520;6.764;2024-03-08T11:20:27;100989.91;;;14.82
69785;BMP280;14177;51.520;6.764;2024-03-08T11:23:08;100988.25;;;14.80
69785;BMP280;14177;51.520;6.764;2024-03-08T11:25:50;100982.63;;;14.89
69785;BMP280;14177;51.520;6.764;2024-03-08T11:28:29;100982.88;;;14.83
69785;BMP280;14177;51.520;6.764;2024-03-08T11:33:40;100974.03;;;14.67
69785;BMP280;14177;51.520;6.764;2024-03-08T11:36:19;100960.34;;;14.80
69785;BMP280;14177;51.520;6.764;2024-03-08T11:38:56;100958.94;;;14.92
69785;BMP280;14177;51.520;6.764;2024-03-08T11:41:32;100962.91;;;15.19
69785;BMP280;14177;51.520;6.764;2024-03-08T11:44:16;100965.16;;;15.26
69785;BMP280;14177;51.520;6.764;2024-03-08T11:46:51;100962.47;;;15.46
69785;BMP280;14177;51.520;6.764;2024-03-08T11:49:25;100958.50;;;15.56
69785;BMP280;14177;51.520;6.764;2024-03-08T11:52:04;100950.88;;;15.69
69785;BMP280;14177;51.520;6.764;2024-03-08T11:54:55;100943.28;;;15.29
69785;BMP280;14177;51.520;6.764;2024-03-08T11:57:27;100941.09;;;15.37
69785;BMP280;14177;51.520;6.764;2024-03-08T12:00:00;100931.34;;;15.40
69785;BMP280;14177;51.520;6.764;2024-03-08T12:02:41;100925.28;;;15.57
69785;BMP280;14177;51.520;6.764;2024-03-08T12:05:12;100914.50;;;15.46
69785;BMP280;14177;51.520;6.764;2024-03-08T12:07:57;100921.69;;;15.59
69785;BMP280;14177;51.520;6.764;2024-03-08T12:10:29;100902.06;;;15.68
69785;BMP280;14177;51.520;6.764;2024-03-08T12:12:58;100899.06;;;15.58
69785;BMP280;14177;51.520;6.764;2024-03-08T12:15:41;100889.78;;;15.68
69785;BMP280;14177;51.520;6.764;2024-03-08T12:18:15;100894.81;;;15.89
69785;BMP280;14177;51.520;6.764;2024-03-08T12:20:42;100889.03;;;16.00
69785;BMP280;14177;51.520;6.764;2024-03-08T12:23:17;100887.53;;;16.11
69785;BMP280;14177;51.520;6.764;2024-03-08T12:25:56;100882.38;;;16.10
69785;BMP280;14177;51.520;6.764;2024-03-08T12:28:29;100880.50;;;15.96
69785;BMP280;14177;51.520;6.764;2024-03-08T12:30:58;100879.41;;;15.83
69785;BMP280;14177;51.520;6.764;2024-03-08T12:34:01;100855.38;;;15.92
69785;BMP280;14177;51.520;6.764;2024-03-08T12:36:33;100855.88;;;15.99
69785;BMP280;14177;51.520;6.764;2024-03-08T12:39:05;100853.91;;;16.19
69785;BMP280;14177;51.520;6.764;2024-03-08T12:41:45;100849.59;;;16.35
69785;BMP280;14177;51.520;6.764;2024-03-08T12:44:24;100839.06;;;16.52
69785;BMP280;14177;51.520;6.764;2024-03-08T12:47:03;100830.97;;;16.72
69785;BMP280;14177;51.520;6.764;2024-03-08T12:49:34;100835.50;;;16.69
69785;BMP280;14177;51.520;6.764;2024-03-08T12:52:10;100821.78;;;16.79
69785;BMP280;14177;51.520;6.764;2024-03-08T12:54:52;100818.06;;;16.83
69785;BMP280;14177;51.520;6.764;2024-03-08T12:57:29;100817.13;;;16.84
69785;BMP280;14177;51.520;6.764;2024-03-08T13:00:06;100814.28;;;16.73
69785;BMP280;14177;51.520;6.764;2024-03-08T13:02:42;100804.34;;;16.78
69785;BMP280;14177;51.520;6.764;2024-03-08T13:05:14;100794.22;;;16.88
69785;BMP280;14177;51.520;6.764;2024-03-08T13:07:55;100781.59;;;16.94
69785;BMP280;14177;51.520;6.764;2024-03-08T13:10:31;100782.75;;;17.04
69785;BMP280;14177;51.520;6.764;2024-03-08T13:13:14;100777.03;;;17.27
69785;BMP280;14177;51.520;6.764;2024-03-08T13:16:13;100786.84;;;17.39
69785;BMP280;14177;51.520;6.764;2024-03-08T13:18:49;100778.25;;;17.51
69785;BMP280;14177;51.520;6.764;2024-03-08T13:21:36;100778.25;;;17.51
69785;BMP280;14177;51.520;6.764;2024-03-08T13:24:14;100764.91;;;17.24
69785;BMP280;14177;51.520;6.764;2024-03-08T13:26:47;100766.13;;;17.19
69785;BMP280;14177;51.520;6.764;2024-03-08T13:29:25;100752.06;;;17.20
69785;BMP280;14177;51.520;6.764;2024-03-08T13:31:53;100757.72;;;17.28
69785;BMP280;14177;51.520;6.764;2024-03-08T13:34:28;100747.13;;;17.59
69785;BMP280;14177;51.520;6.764;2024-03-08T13:37:06;100739.63;;;17.81
69785;BMP280;14177;51.520;6.764;2024-03-08T13:39:39;100738.81;;;17.80
69785;BMP280;14177;51.520;6.764;2024-03-08T13:42:21;100742.25;;;17.81
69785;BMP280;14177;51.520;6.764;2024-03-08T13:45:20;100719.44;;;17.95
69785;BMP280;14177;51.520;6.764;2024-03-08T13:48:05;100722.00;;;17.97
69785;BMP280;14177;51.520;6.764;2024-03-08T13:50:51;100719.38;;;17.83
69785;BMP280;14177;51.520;6.764;2024-03-08T13:53:34;100715.22;;;17.65
69785;BMP280;14177;51.520;6.764;2024-03-08T13:56:05;100707.81;;;17.57
69785;BMP280;14177;51.520;6.764;2024-03-08T13:58:41;100702.66;;;17.42
69785;BMP280;14177;51.520;6.764;2024-03-08T14:01:11;100690.00;;;17.19
69785;BMP280;14177;51.520;6.764;2024-03-08T14:03:41;100686.69;;;17.02
69785;BMP280;14177;51.520;6.764;2024-03-08T14:06:09;100686.19;;;16.95
69785;BMP280;14177;51.520;6.764;2024-03-08T14:08:51;100684.63;;;16.77
69785;BMP280;14177;51.520;6.764;2024-03-08T14:11:26;100682.41;;;16.85
69785;BMP280;14177;51.520;6.764;2024-03-08T14:13:56;100668.34;;;17.02
69785;BMP280;14177;51.520;6.764;2024-03-08T14:16:23;100658.13;;;17.11
69785;BMP280;14177;51.520;6.764;2024-03-08T14:18:50;100662.81;;;17.20
69785;BMP280;14177;51.520;6.764;2024-03-08T14:21:23;100658.47;;;17.34
69785;BMP280;14177;51.520;6.764;2024-03-08T14:24:00;100655.41;;;17.42
69785;BMP280;14177;51.520;6.764;2024-03-08T14:26:30;100643.84;;;17.44
69785;BMP280;14177;51.520;6.764;2024-03-08T14:28:57;100638.03;;;17.53
69785;BMP280;14177;51.520;6.764;2024-03-08T14:31:24;100640.03;;;17.07
69785;BMP280;14177;51.520;6.764;2024-03-08T14:33:54;100639.56;;;16.71
69785;BMP280;14177;51.520;6.764;2024-03-08T14:36:29;100629.53;;;16.77
69785;BMP280;14177;51.520;6.764;2024-03-08T14:39:05;100628.78;;;17.05